Latest Weather Observations for Bundaberg

IDQ60801

Issued at 9:13 am EST Tuesday 7 December 2021 (issued every 10 minutes, with the page automatically refreshed every 10 minutes)

About weather observations | Map of weather stations | Latest weather observations for QLD | Other Formats
Station Details ID: 039128 Name: BUNDABERG AERO Lat: -24.91 Lon: 152.32 Height: 30.82 m
Data from the previous 72 hours. | See also: Recent months at Bundaberg
Date/Time
EST
Temp
°C
App
Temp
°C
Dew
Point
°C
Rel
Hum
%
Delta-T
°C
Wind Press
QNH
hPa
Press
MSL
hPa
Rain since
9am
mm
Dir  Spd
km/h
Gust
km/h
Spd
kts
Gust
kts
07/09:00am 26.4 27.9 19.8 67 4.3 E 11 22 6 12 1013.5 1013.3 0.2
07/08:30am 25.9 27.5 20.7 73 3.4 ESE 13 17 7 9 1013.3 1013.1 0.2
07/08:00am 24.5 25.9 20.4 78 2.7 SE 13 17 7 9 1013.2 1013.0 0.2
07/07:30am 24.2 25.1 20.1 78 2.7 SE 15 19 8 10 1013.1 1012.9 0.2
07/07:00am 22.9 23.6 19.7 82 2.1 SE 15 20 8 11 1013.2 1013.0 0.2
07/06:30am 21.7 23.0 19.3 86 1.5 S 11 17 6 9 1013.4 1013.2 0.2
07/06:00am 21.0 22.2 19.1 89 1.2 S 11 15 6 8 1013.2 1013.0 0.2
07/05:30am 20.6 22.4 18.7 89 1.2 S 7 11 4 6 1013.4 1013.2 0.2
07/05:00am 20.6 21.9 18.5 88 1.3 SSW 9 13 5 7 1013.3 1013.1 0.2
07/04:30am 20.7 22.1 18.6 88 1.3 SSW 9 15 5 8 1013.1 1012.9 0.2
07/04:00am 20.7 22.2 19.0 90 1.1 S 9 13 5 7 1012.8 1012.6 0.2
07/03:30am 20.7 22.2 18.8 89 1.2 S 9 11 5 6 1012.6 1012.4 0.2
07/03:00am 20.8 21.8 18.7 88 1.3 S 11 15 6 8 1012.6 1012.4 0.2
07/02:30am 20.9 22.0 18.8 88 1.3 S 11 15 6 8 1012.7 1012.5 0.2
07/02:00am 20.9 22.1 19.0 89 1.2 S 11 15 6 8 1012.8 1012.6 0.2
07/01:30am 20.8 22.0 19.1 90 1.1 S 11 15 6 8 1013.0 1012.8 0.2
07/01:00am 21.1 22.3 19.0 88 1.3 S 11 15 6 8 1013.0 1012.8 0.2
07/12:30am 21.3 22.6 19.2 88 1.3 S 11 15 6 8 1013.1 1012.9 0.2
07/12:00am 21.4 22.7 19.3 88 1.3 S 11 15 6 8 1013.4 1013.2 0.2
 
Date/Time
EST
Temp
°C
App
Temp
°C
Dew
Point
°C
Rel
Hum
%
Delta-T
°C
Wind Press
QNH
hPa
Press
MSL
hPa
Rain since
9am
mm
Dir  Spd
km/h
Gust
km/h
Spd
kts
Gust
kts
06/11:30pm 21.6 22.6 19.5 88 1.3 S 13 17 7 9 1013.7 1013.5 0.2
06/11:00pm 21.9 23.0 19.6 87 1.5 S 13 19 7 10 1014.2 1014.0 0.2
06/10:30pm 22.1 23.3 19.8 87 1.5 S 13 17 7 9 1014.3 1014.1 0.2
06/10:00pm 22.1 23.7 20.0 88 1.3 S 11 15 6 8 1014.5 1014.3 0.2
06/09:30pm 22.2 24.3 20.1 88 1.4 S 9 11 5 6 1014.3 1014.1 0.2
06/09:00pm 22.3 24.4 20.2 88 1.4 SE 9 11 5 6 1013.9 1013.7 0.2
06/08:30pm 22.7 25.2 20.2 86 1.6 S 7 11 4 6 1013.7 1013.5 0.2
06/08:00pm 22.9 24.5 19.9 83 1.9 SSE 11 15 6 8 1013.2 1013.0 0.2
06/07:30pm 23.2 24.8 20.0 82 2.1 SSE 11 13 6 7 1012.9 1012.7 0.2
06/07:00pm 23.8 24.3 20.1 80 2.4 SE 17 22 9 12 1012.6 1012.4 0.2
06/06:30pm 24.4 24.5 20.3 78 2.7 ESE 20 28 11 15 1012.2 1012.0 0.2
06/06:00pm 24.6 23.1 19.4 73 3.3 SE 26 35 14 19 1012.0 1011.8 0.2
06/05:30pm 25.1 25.0 19.9 73 3.4 ESE 20 28 11 15 1011.8 1011.6 0.2
06/05:00pm 25.5 24.4 20.3 73 3.4 ESE 26 33 14 18 1011.6 1011.4 0.2
06/04:30pm 26.2 24.8 18.9 64 4.7 ESE 24 33 13 18 1011.4 1011.2 0.2
06/04:00pm 25.5 23.7 19.6 70 3.8 E 28 33 15 18 1011.2 1011.0 0.2
06/03:30pm 26.4 26.5 20.0 68 4.2 ESE 19 26 10 14 1011.6 1011.4 0.2
06/03:00pm 26.8 25.8 18.9 62 5.1 SE 22 28 12 15 1011.9 1011.7 0.2
06/02:30pm 24.8 23.6 20.9 79 2.6 ESE 28 41 15 22 1012.1 1011.9 0.2
06/02:00pm 27.7 25.9 19.5 61 5.3 ESE 28 39 15 21 1012.1 1011.9 0.0
06/01:30pm 27.1 25.1 19.2 62 5.1 ESE 28 37 15 20 1012.4 1012.2 0.0
06/01:00pm 28.0 27.3 20.3 63 5.1 ESE 24 39 13 21 1012.5 1012.3 0.0
06/12:30pm 27.8 25.2 19.6 61 5.3 ESE 32 41 17 22 1012.6 1012.4 0.0
06/12:00pm 27.9 25.6 19.4 60 5.5 ESE 30 39 16 21 1012.6 1012.4 0.0
06/11:30am 27.6 25.7 19.4 61 5.3 E 28 37 15 20 1012.8 1012.6 0.0
06/11:00am 27.8 26.5 19.1 59 5.6 SE 24 33 13 18 1013.1 1012.9 0.0
06/10:30am 26.9 25.4 19.5 64 4.8 SE 26 35 14 19 1013.4 1013.2 0.0
06/10:00am 26.4 25.5 19.0 63 4.7 SE 22 30 12 16 1013.7 1013.5 0.0
06/09:30am 27.0 26.7 19.6 64 4.8 SE 20 28 11 15 1014.0 1013.8 0.0
06/09:00am 26.3 25.1 19.2 65 4.6 SE 24 30 13 16 1014.1 1013.9 0.0
06/08:30am 25.4 24.6 19.3 69 3.9 SE 22 32 12 17 1014.0 1013.8 0.0
06/08:00am 25.4 25.2 19.8 71 3.6 SE 20 35 11 19 1013.9 1013.7 0.0
06/07:30am 24.2 24.0 19.7 76 2.9 SSE 20 28 11 15 1013.8 1013.6 0.0
06/07:00am 23.5 23.9 19.8 80 2.4 SSE 17 24 9 13 1013.7 1013.5 0.0
06/06:30am 22.6 23.8 19.8 84 1.8 SSE 13 22 7 12 1013.5 1013.3 0.0
06/06:00am 21.5 22.7 19.8 90 1.1 S 13 19 7 10 1013.0 1012.8 0.0
06/05:30am 20.6 21.9 19.4 93 0.8 S 11 17 6 9 1012.6 1012.4 0.0
06/05:00am 20.1 20.9 19.1 94 0.6 S 13 19 7 10 1012.3 1012.1 0.0
06/04:30am 20.3 21.6 19.3 94 0.6 S 11 19 6 10 1012.5 1012.3 0.0
06/04:00am 20.4 21.7 19.4 94 0.6 S 11 17 6 9 1012.3 1012.1 0.0
06/03:30am 20.6 21.7 19.6 94 0.6 S 13 19 7 10 1012.0 1011.8 0.0
06/03:00am 20.8 22.2 19.6 93 0.8 S 11 17 6 9 1012.0 1011.8 0.0
06/02:30am 21.0 22.5 19.8 93 0.8 S 11 17 6 9 1012.2 1012.0 0.0
06/02:00am 21.2 22.3 19.7 91 1.0 SSE 13 19 7 10 1012.3 1012.1 0.0
06/01:30am 21.3 22.1 19.8 91 1.0 S 15 22 8 12 1012.7 1012.5 0.0
06/01:00am 21.5 22.7 19.8 90 1.1 SSE 13 19 7 10 1013.1 1012.9 0.0
06/12:30am 21.6 22.9 20.1 91 1.0 SSE 13 19 7 10 1013.4 1013.2 0.0
06/12:00am 21.7 22.9 20.0 90 1.1 S 13 19 7 10 1013.4 1013.2 0.0
 
Date/Time
EST
Temp
°C
App
Temp
°C
Dew
Point
°C
Rel
Hum
%
Delta-T
°C
Wind Press
QNH
hPa
Press
MSL
hPa
Rain since
9am
mm
Dir  Spd
km/h
Gust
km/h
Spd
kts
Gust
kts
05/11:30pm 21.8 23.1 20.1 90 1.1 S 13 20 7 11 1013.3 1013.1 0.0
05/11:00pm 22.0 23.4 20.3 90 1.1 S 13 19 7 10 1013.3 1013.1 0.0
05/10:30pm 22.3 24.0 20.2 88 1.4 SSE 11 17 6 9 1013.5 1013.3 0.0
05/10:00pm 22.6 23.6 20.3 87 1.5 SSE 15 19 8 10 1013.3 1013.1 0.0
05/09:30pm 23.0 23.7 20.5 86 1.6 SSE 17 22 9 12 1013.6 1013.4 0.0
05/09:00pm 23.3 23.8 20.1 82 2.1 SSE 17 24 9 13 1013.2 1013.0 0.0
05/08:30pm 23.6 24.1 20.1 81 2.3 SSE 17 24 9 13 1013.1 1012.9 0.0
05/08:00pm 23.8 24.8 20.3 81 2.3 SE 15 20 8 11 1013.0 1012.8 0.0
05/07:30pm 24.0 24.5 20.1 79 2.5 SSE 17 20 9 11 1012.6 1012.4 0.0
05/07:00pm 24.3 24.1 19.8 76 2.9 SE 20 26 11 14 1011.9 1011.7 0.0
05/06:30pm 25.0 24.3 19.4 71 3.6 SE 22 30 12 16 1011.6 1011.4 0.0
05/06:00pm 25.3 23.9 19.7 71 3.6 ESE 26 32 14 17 1011.2 1011.0 0.0
05/05:30pm 25.7 24.7 19.6 69 3.9 ESE 24 30 13 16 1010.8 1010.6 0.0
05/05:00pm 26.2 23.6 18.6 63 4.9 ESE 30 41 16 22 1010.7 1010.5 0.0
05/04:30pm 26.8 24.5 19.4 64 4.8 ESE 30 43 16 23 1010.3 1010.1 0.0
05/04:00pm 27.9 26.0 20.2 63 5.1 E 30 44 16 24 1009.8 1009.6 0.0
05/03:30pm 27.9 25.5 19.9 61 5.2 ESE 32 39 17 21 1010.1 1009.9 0.0
05/03:00pm 28.2 26.5 20.5 63 5.1 ESE 30 39 16 21 1010.2 1010.0 0.0
05/02:30pm 28.3 26.8 20.3 62 5.3 ESE 28 35 15 19 1010.5 1010.3 0.0
05/02:00pm 28.2 27.3 21.5 67 4.5 ESE 28 35 15 19 1010.7 1010.5 0.0
05/01:30pm 28.2 27.8 21.0 65 4.8 ESE 24 37 13 20 1011.0 1010.8 0.0
05/01:00pm 28.6 27.4 19.2 56 6.1 ESE 24 32 13 17 1011.2 1011.0 0.0
05/12:30pm 28.6 27.5 20.3 60 5.5 ESE 26 35 14 19 1011.5 1011.3 0.0
05/12:00pm 28.5 28.3 19.7 59 5.7 E 20 28 11 15 1011.7 1011.5 0.0
05/11:30am 28.2 27.2 18.0 54 6.5 ESE 20 32 11 17 1012.2 1012.0 0.0
05/11:00am 27.9 27.9 18.9 58 5.8 ESE 17 28 9 15 1012.4 1012.2 0.0
05/10:30am 27.5 27.7 19.3 61 5.3 ESE 17 24 9 13 1012.5 1012.3 0.0
05/10:00am 27.4 28.6 20.0 64 4.8 SSE 13 20 7 11 1012.6 1012.4 0.0
05/09:30am 26.7 27.5 19.8 66 4.5 SE 15 22 8 12 1012.9 1012.7 0.0
05/09:00am 25.8 26.0 19.4 67 4.1 SSE 17 22 9 12 1012.9 1012.7 13.6
05/08:30am 24.9 26.3 20.4 76 2.9 SSE 13 22 7 12 1012.7 1012.5 13.6
05/08:00am 23.9 25.2 20.2 80 2.4 S 13 20 7 11 1012.4 1012.2 13.6
05/07:30am 23.2 24.5 20.2 83 1.9 S 13 19 7 10 1012.5 1012.3 13.6
05/07:00am 22.1 23.3 19.8 87 1.5 SSW 13 19 7 10 1012.4 1012.2 13.6
05/06:30am 21.8 23.1 20.1 90 1.1 SSW 13 19 7 10 1011.8 1011.6 13.6
05/06:00am 21.1 23.1 19.9 93 0.8 SW 9 13 5 7 1011.1 1010.9 13.6
05/05:30am 20.4 22.2 19.6 95 0.5 WSW 9 13 5 7 1010.6 1010.4 13.6
05/05:00am 20.3 21.6 19.3 94 0.6 WSW 11 15 6 8 1010.3 1010.1 13.6
05/04:30am 20.0 20.6 18.7 92 0.8 WSW 13 20 7 11 1010.1 1009.9 13.6
05/04:00am 19.8 20.8 18.6 93 0.7 WNW 11 17 6 9 1009.6 1009.4 13.4
05/03:30am 20.4 21.4 17.8 85 1.6 SW 9 20 5 11 1009.7 1009.5 13.4
05/03:00am 19.9 19.5 17.1 84 1.7 NE 15 20 8 11 1009.1 1008.9 13.4
05/02:42am 20.0 18.2 17.8 87 1.4 NE 24 30 13 16 1009.7 1009.5 13.2
05/02:41am 20.0 18.1 17.6 86 1.5 NE 24 30 13 16 1009.7 1009.5 13.2
05/02:30am 20.6 19.6 19.6 94 0.6 NNE 24 30 13 16 1010.3 1010.1 12.8
05/02:11am 21.1 23.2 20.9 99 0.1 SE 11 24 6 13 1011.1 1010.9 12.6
05/02:07am 21.0 21.9 20.8 99 0.1 SE 17 33 9 18 1011.3 1011.1 12.6
05/02:02am 21.1 20.6 20.8 98 0.2 SE 24 33 13 18 1011.4 1011.2 12.6
05/02:00am 21.1 20.3 20.9 99 0.1 SE 26 33 14 18 1011.2 1011.0 12.6
05/01:48am 21.2 20.8 21.0 99 0.1 SE 24 33 13 18 1011.2 1011.0 12.4
05/01:41am 21.2 20.1 21.0 99 0.1 SE 28 37 15 20 1011.4 1011.2 11.8
05/01:30am 20.9 19.4 20.2 96 0.4 SE 28 44 15 24 1011.2 1011.0 10.4
05/01:26am 20.7 18.9 20.4 98 0.2 SSE 30 44 16 24 1011.6 1011.4 9.8
05/01:21am 20.6 18.3 19.4 93 0.8 S 30 44 16 24 1011.7 1011.5 4.0
05/01:16am 22.0 20.9 19.5 86 1.6 S 24 43 13 23 1011.4 1011.2 0.0
05/01:00am 23.3 24.1 21.4 89 1.3 ESE 19 24 10 13 1011.0 1010.8 0.0
05/12:30am 23.6 24.7 21.3 87 1.5 SE 17 20 9 11 1011.4 1011.2 0.0
05/12:00am 23.3 26.3 20.8 86 1.6 SE 6 9 3 5 1010.9 1010.7 0.0
 
Date/Time
EST
Temp
°C
App
Temp
°C
Dew
Point
°C
Rel
Hum
%
Delta-T
°C
Wind Press
QNH
hPa
Press
MSL
hPa
Rain since
9am
mm
Dir  Spd
km/h
Gust
km/h
Spd
kts
Gust
kts
04/11:30pm 24.0 28.1 20.7 82 2.2 CALM 0 0 0 0 1011.1 1010.9 0.0
04/11:00pm 24.1 27.7 20.6 81 2.3 ENE 2 6 1 3 1011.3 1011.1 0.0
04/10:30pm 24.3 26.4 20.2 78 2.7 ENE 9 13 5 7 1011.0 1010.8 0.0
04/10:00pm 24.7 26.9 20.4 77 2.8 NNE 9 11 5 6 1011.2 1011.0 0.0
04/09:30pm 24.7 26.9 20.4 77 2.8 NE 9 13 5 7 1011.1 1010.9 0.0
04/09:00pm 24.7 27.9 20.6 78 2.7 NE 4 7 2 4 1011.2 1011.0 0.0
04/08:30pm 24.7 27.4 20.6 78 2.7 NE 7 9 4 5 1010.6 1010.4 0.0
04/08:00pm 24.9 27.5 21.2 80 2.4 NNE 9 13 5 7 1010.1 1009.9 0.0
04/07:30pm 25.1 27.3 21.2 79 2.6 NNE 11 15 6 8 1009.7 1009.5 0.0
04/07:00pm 25.4 26.8 21.1 77 2.8 NE 15 20 8 11 1009.2 1009.0 0.0
04/06:30pm 25.8 27.2 21.0 75 3.2 NE 15 22 8 12 1009.3 1009.1 0.0
04/06:00pm 26.4 27.9 20.5 70 3.9 NE 13 19 7 10 1009.4 1009.2 0.0
04/05:30pm 27.3 27.8 20.1 64 4.7 ENE 17 24 9 13 1009.2 1009.0 0.0
04/05:00pm 27.9 27.7 19.4 60 5.5 ENE 19 22 10 12 1008.8 1008.6 0.0
04/04:30pm 28.5 28.1 19.4 57 5.9 ENE 20 28 11 15 1008.6 1008.4 0.0
04/04:00pm 28.8 28.3 19.1 55 6.3 ENE 20 28 11 15 1008.6 1008.4 0.0
04/03:30pm 29.3 28.9 19.3 55 6.5 E 20 28 11 15 1008.8 1008.6 0.0
04/03:00pm 29.5 29.5 19.8 56 6.4 E 19 26 10 14 1009.3 1009.1 0.0
04/02:30pm 28.9 28.4 18.7 54 6.6 ESE 19 26 10 14 1009.5 1009.3 0.0
04/02:00pm 29.8 30.7 20.9 59 5.9 ESE 17 24 9 13 1009.6 1009.4 0.0
04/01:30pm 29.2 30.7 19.8 57 6.2 ENE 11 17 6 9 1010.1 1009.9 0.0
04/01:00pm 29.1 29.8 19.7 57 6.2 ENE 15 20 8 11 1010.4 1010.2 0.0
04/12:30pm 29.1 30.4 20.8 61 5.5 NE 15 24 8 13 1010.8 1010.6 0.0
04/12:00pm 28.2 29.2 20.2 62 5.3 E 15 20 8 11 1011.2 1011.0 0.0
04/11:30am 28.7 29.5 19.9 59 5.8 E 15 26 8 14 1011.5 1011.3 0.0
04/11:00am 28.7 29.9 19.9 59 5.8 E 13 20 7 11 1012.0 1011.8 0.0
04/10:30am 28.3 28.9 18.7 56 6.2 E 13 20 7 11 1012.5 1012.3 0.0
04/10:00am 28.3 29.2 19.2 57 5.9 ESE 13 22 7 12 1012.7 1012.5 0.0
04/09:30am 27.6 28.6 19.4 61 5.3 SSE 13 20 7 11 1013.0 1012.8 0.0

Other formats

Comma delimited format used in spreadsheet applications
http://www.bom.gov.au/fwo/IDQ60801/IDQ60801.94387.axf

JavaScript Object Notation format (JSON) in row-major order
http://www.bom.gov.au/fwo/IDQ60801/IDQ60801.94387.json

Data quality

Most of these data are generated automatically and are frequently updated. Quality checks on data are not normally performed. It is possible for incorrect values to appear. Refer to information at About Latest Weather Observations and please check the disclaimer before using these data.